createdAt,value
2024-01-26T00:01:54.426Z,101838.31
2024-01-26T00:04:21.305Z,101845.84
2024-01-26T00:06:48.978Z,101832.72
2024-01-26T00:09:16.877Z,101840.19
2024-01-26T00:11:44.071Z,101834.00
2024-01-26T00:14:11.293Z,101838.56
2024-01-26T00:16:38.865Z,101832.53
2024-01-26T00:19:08.582Z,101826.16
2024-01-26T00:21:35.629Z,101833.16
2024-01-26T00:24:02.400Z,101838.41
2024-01-26T00:26:28.852Z,101837.47
2024-01-26T00:28:55.353Z,101819.91
2024-01-26T00:31:21.935Z,101827.69
2024-01-26T00:33:48.666Z,101825.47
2024-01-26T00:36:15.497Z,101830.16
2024-01-26T00:38:42.553Z,101834.59
2024-01-26T00:41:09.085Z,101841.81
2024-01-26T00:43:35.688Z,101831.47
2024-01-26T00:46:02.347Z,101840.78
2024-01-26T00:48:29.166Z,101839.84
2024-01-26T00:50:56.089Z,101831.59
2024-01-26T00:53:23.642Z,101837.06
2024-01-26T00:55:50.796Z,101847.47
2024-01-26T00:58:17.336Z,101844.69
2024-01-26T01:00:44.370Z,101844.00
2024-01-26T01:03:11.052Z,101843.97
2024-01-26T01:05:37.677Z,101843.59
2024-01-26T01:08:05.836Z,101842.28
2024-01-26T01:10:32.438Z,101844.44
2024-01-26T01:12:58.980Z,101847.22
2024-01-26T01:15:25.481Z,101845.47
2024-01-26T01:17:52.033Z,101842.69
2024-01-26T01:20:18.555Z,101843.06
2024-01-26T01:22:45.388Z,101850.59
2024-01-26T01:25:13.407Z,101854.59
2024-01-26T01:27:40.588Z,101859.00
2024-01-26T01:30:09.067Z,101859.00
2024-01-26T01:32:35.987Z,101856.03
2024-01-26T01:35:03.177Z,101850.97
2024-01-26T01:37:29.799Z,101847.78
2024-01-26T01:39:56.263Z,101848.88
2024-01-26T01:42:22.721Z,101850.25
2024-01-26T01:44:49.401Z,101847.09
2024-01-26T01:47:16.509Z,101844.09
2024-01-26T01:49:45.169Z,101851.38
2024-01-26T01:52:15.756Z,101842.31
2024-01-26T01:54:42.268Z,101847.06
2024-01-26T01:57:12.589Z,101843.84
2024-01-26T01:59:39.226Z,101849.78
2024-01-26T02:02:06.028Z,101857.38
2024-01-26T02:04:33.018Z,101849.84
2024-01-26T02:07:01.759Z,101844.56
2024-01-26T02:09:28.906Z,101837.78
2024-01-26T02:11:56.680Z,101833.41
2024-01-26T02:14:24.035Z,101845.66
2024-01-26T02:17:02.552Z,101856.31
2024-01-26T02:19:30.807Z,101842.50
2024-01-26T02:21:57.338Z,101844.78
2024-01-26T02:24:23.853Z,101834.84
2024-01-26T02:26:50.450Z,101831.34
2024-01-26T02:29:16.982Z,101826.31
2024-01-26T02:31:43.479Z,101836.53
2024-01-26T02:34:13.867Z,101843.00
2024-01-26T02:36:40.612Z,101842.06
2024-01-26T02:39:07.388Z,101858.69
2024-01-26T02:41:35.788Z,101851.75
2024-01-26T02:44:04.036Z,101854.06
2024-01-26T02:46:30.614Z,101857.75
2024-01-26T02:48:57.462Z,101867.44
2024-01-26T02:51:24.112Z,101870.66
2024-01-26T02:53:50.689Z,101865.63
2024-01-26T02:56:17.264Z,101864.91
2024-01-26T02:58:43.844Z,101860.09
2024-01-26T03:01:10.401Z,101855.03
2024-01-26T03:03:36.992Z,101857.78
2024-01-26T03:06:03.785Z,101853.16
2024-01-26T03:08:30.369Z,101849.50
2024-01-26T03:10:56.846Z,101849.44
2024-01-26T03:13:23.316Z,101852.44
2024-01-26T03:15:51.300Z,101848.06
2024-01-26T03:18:18.814Z,101854.25
2024-01-26T03:20:45.846Z,101850.81
2024-01-26T03:23:12.823Z,101854.28
2024-01-26T03:25:39.889Z,101850.84
2024-01-26T03:28:07.511Z,101848.00
2024-01-26T03:30:35.208Z,101851.25
2024-01-26T03:33:02.145Z,101843.94
2024-01-26T03:35:28.832Z,101850.88
2024-01-26T03:37:55.498Z,101858.91
2024-01-26T03:40:23.482Z,101851.28
2024-01-26T03:42:50.002Z,101862.31
2024-01-26T03:45:16.640Z,101863.50
2024-01-26T03:47:43.303Z,101869.69
2024-01-26T03:50:10.293Z,101866.88
2024-01-26T03:52:36.881Z,101868.69
2024-01-26T03:55:03.649Z,101874.00
2024-01-26T03:57:30.173Z,101864.59
2024-01-26T03:59:56.664Z,101873.38
2024-01-26T04:02:23.162Z,101890.41
2024-01-26T04:04:49.644Z,101886.28
2024-01-26T04:07:16.215Z,101886.69
2024-01-26T04:09:42.693Z,101879.31
2024-01-26T04:12:09.404Z,101876.28
2024-01-26T04:14:36.009Z,101884.34
2024-01-26T04:17:02.509Z,101884.44
2024-01-26T04:19:29.176Z,101881.44
2024-01-26T04:21:55.697Z,101880.03
2024-01-26T04:24:22.172Z,101880.22
2024-01-26T04:26:48.648Z,101875.66
2024-01-26T04:29:15.146Z,101879.38
2024-01-26T04:31:45.233Z,101877.09
2024-01-26T04:34:12.500Z,101885.56
2024-01-26T04:36:39.081Z,101886.06
2024-01-26T04:39:05.694Z,101883.97
2024-01-26T04:41:32.262Z,101892.72
2024-01-26T04:43:58.747Z,101885.13
2024-01-26T04:46:25.233Z,101890.88
2024-01-26T04:48:51.891Z,101889.28
2024-01-26T04:51:18.826Z,101898.72
2024-01-26T04:53:45.396Z,101901.91
2024-01-26T04:56:14.430Z,101905.84
2024-01-26T04:58:41.286Z,101894.09
2024-01-26T05:01:08.768Z,101894.09
2024-01-26T05:03:35.309Z,101884.22
2024-01-26T05:06:02.014Z,101902.41
2024-01-26T05:08:28.644Z,101908.34
2024-01-26T05:10:55.119Z,101908.13
2024-01-26T05:13:21.700Z,101907.91
2024-01-26T05:15:48.379Z,101916.63
2024-01-26T05:18:15.057Z,101914.09
2024-01-26T05:20:41.728Z,101914.56
2024-01-26T05:23:09.087Z,101924.69
2024-01-26T05:25:35.548Z,101933.19
2024-01-26T05:28:02.045Z,101939.16
2024-01-26T05:30:28.524Z,101944.19
2024-01-26T05:32:55.149Z,101949.22
2024-01-26T05:35:22.288Z,101948.81
2024-01-26T05:37:48.893Z,101940.47
2024-01-26T05:40:15.690Z,101935.88
2024-01-26T05:42:42.196Z,101942.09
2024-01-26T05:45:09.868Z,101949.72
2024-01-26T05:47:36.489Z,101960.09
2024-01-26T05:50:03.349Z,101949.06
2024-01-26T05:52:29.935Z,101947.22
2024-01-26T05:54:56.505Z,101952.50
2024-01-26T05:57:23.135Z,101947.91
2024-01-26T05:59:50.180Z,101943.75
2024-01-26T06:02:16.794Z,101951.84
2024-01-26T06:04:43.368Z,101952.53
2024-01-26T06:07:10.015Z,101948.81
2024-01-26T06:09:36.543Z,101949.75
2024-01-26T06:12:03.569Z,101954.81
2024-01-26T06:14:30.085Z,101954.38
2024-01-26T06:16:56.586Z,101951.84
2024-01-26T06:19:23.271Z,101946.53
2024-01-26T06:21:50.410Z,101954.13
2024-01-26T06:24:17.033Z,101958.97
2024-01-26T06:26:43.653Z,101976.91
2024-01-26T06:29:10.107Z,101976.88
2024-01-26T06:31:36.599Z,101986.53
2024-01-26T06:34:03.244Z,102004.47
2024-01-26T06:36:29.890Z,102012.75
2024-01-26T06:38:56.399Z,102004.72
2024-01-26T06:41:22.960Z,102004.72
2024-01-26T06:43:52.478Z,102003.59
2024-01-26T06:46:25.335Z,101993.00
2024-01-26T06:48:52.223Z,101991.16
2024-01-26T06:51:20.217Z,101992.78
2024-01-26T06:53:46.763Z,101994.16
2024-01-26T06:56:13.333Z,102010.00
2024-01-26T06:58:39.816Z,102011.41
2024-01-26T07:01:06.944Z,102005.41
2024-01-26T07:03:33.570Z,102009.78
2024-01-26T07:06:00.201Z,102009.78
2024-01-26T07:08:26.757Z,102004.28
2024-01-26T07:10:53.320Z,102010.94
2024-01-26T07:13:20.232Z,102024.25
2024-01-26T07:15:46.932Z,102032.56
2024-01-26T07:18:13.863Z,102052.03
2024-01-26T07:20:40.455Z,102039.59
2024-01-26T07:23:06.988Z,102038.03
2024-01-26T07:25:33.475Z,102048.59
2024-01-26T07:28:00.058Z,102046.78
2024-01-26T07:30:26.600Z,102040.13
2024-01-26T07:32:53.326Z,102047.97
2024-01-26T07:35:19.895Z,102053.41
2024-01-26T07:37:46.635Z,102058.25
2024-01-26T07:40:13.770Z,102054.34
2024-01-26T07:42:40.252Z,102054.63
2024-01-26T07:45:06.867Z,102054.41
2024-01-26T07:47:36.285Z,102053.06
2024-01-26T07:50:04.250Z,102050.50
2024-01-26T07:52:30.818Z,102062.03
2024-01-26T07:54:57.337Z,102068.47
2024-01-26T07:57:25.768Z,102078.59
2024-01-26T07:59:52.355Z,102082.75
2024-01-26T08:02:19.298Z,102083.41
2024-01-26T08:04:46.152Z,102082.53
2024-01-26T08:07:15.469Z,102090.31
2024-01-26T08:09:42.074Z,102081.34
2024-01-26T08:12:09.758Z,102084.56
2024-01-26T08:14:37.630Z,102074.16
2024-01-26T08:17:04.462Z,102080.41
2024-01-26T08:19:31.537Z,102094.66
2024-01-26T08:21:58.141Z,102088.69
2024-01-26T08:24:24.800Z,102089.81
2024-01-26T08:26:51.617Z,102081.28
2024-01-26T08:29:18.180Z,102084.97
2024-01-26T08:31:45.634Z,102087.75
2024-01-26T08:34:12.395Z,102081.50
2024-01-26T08:36:39.289Z,102085.16
2024-01-26T08:39:06.066Z,102074.09
2024-01-26T08:41:33.036Z,102083.06
2024-01-26T08:43:59.549Z,102087.88
2024-01-26T08:46:26.032Z,102094.06
2024-01-26T08:48:52.822Z,102100.72
2024-01-26T08:51:19.485Z,102107.81
2024-01-26T08:53:46.053Z,102117.97
2024-01-26T08:56:13.607Z,102116.75
2024-01-26T08:58:40.077Z,102116.50
2024-01-26T09:01:06.585Z,102117.47
2024-01-26T09:03:33.778Z,102126.84
2024-01-26T09:06:00.638Z,102126.31
2024-01-26T09:08:27.469Z,102126.75
2024-01-26T09:10:54.011Z,102119.31
2024-01-26T09:13:22.081Z,102120.44
2024-01-26T09:15:48.880Z,102124.06
2024-01-26T09:18:15.571Z,102110.13
2024-01-26T09:20:42.945Z,102102.69
2024-01-26T09:23:09.481Z,102115.56
2024-01-26T09:25:35.960Z,102126.13
2024-01-26T09:28:02.419Z,102111.53
2024-01-26T09:30:29.036Z,102114.88
2024-01-26T09:32:55.791Z,102122.47
2024-01-26T09:35:22.769Z,102129.13
2024-01-26T09:37:49.345Z,102129.09
2024-01-26T09:40:16.322Z,102131.78
2024-01-26T09:42:43.027Z,102139.06
2024-01-26T09:45:10.391Z,102139.72
2024-01-26T09:47:37.316Z,102134.78
2024-01-26T09:50:05.833Z,102128.28
2024-01-26T09:52:35.608Z,102129.22
2024-01-26T09:55:02.624Z,102145.34
2024-01-26T09:57:31.388Z,102142.53
2024-01-26T09:59:58.216Z,102144.00
2024-01-26T10:02:26.684Z,102143.47
2024-01-26T10:04:54.115Z,102145.22
2024-01-26T10:07:21.829Z,102143.97
2024-01-26T10:09:48.289Z,102144.38
2024-01-26T10:12:14.934Z,102154.69
2024-01-26T10:14:41.634Z,102169.28
2024-01-26T10:17:08.122Z,102155.81
2024-01-26T10:19:35.946Z,102148.81
2024-01-26T10:22:03.008Z,102151.69
2024-01-26T10:24:30.045Z,102149.78
2024-01-26T10:26:57.137Z,102156.69
2024-01-26T10:29:24.293Z,102155.41
2024-01-26T10:31:51.464Z,102152.72
2024-01-26T10:34:19.557Z,102162.63
2024-01-26T10:36:49.915Z,102158.38
2024-01-26T10:39:25.623Z,102154.81
2024-01-26T10:41:54.232Z,102147.50
2024-01-26T10:44:22.016Z,102145.47
2024-01-26T10:46:49.704Z,102154.16
2024-01-26T10:49:17.269Z,102154.88
2024-01-26T10:51:44.547Z,102154.16
2024-01-26T10:54:12.805Z,102146.94
2024-01-26T10:56:40.225Z,102139.47
2024-01-26T10:59:11.569Z,102148.78
2024-01-26T11:01:39.496Z,102155.28
2024-01-26T11:04:09.002Z,102149.06
2024-01-26T11:06:36.075Z,102153.88
2024-01-26T11:09:08.489Z,102150.13
2024-01-26T11:11:39.867Z,102135.66
2024-01-26T11:14:07.118Z,102137.88
2024-01-26T11:16:35.292Z,102138.50
2024-01-26T11:19:03.581Z,102124.34
2024-01-26T11:21:45.921Z,102121.69
2024-01-26T11:24:16.683Z,102117.81
2024-01-26T11:26:44.064Z,102118.03
2024-01-26T11:29:15.121Z,102114.56
2024-01-26T11:31:43.314Z,102111.06
2024-01-26T11:34:23.218Z,102104.44
2024-01-26T11:36:49.995Z,102103.94
2024-01-26T11:39:17.891Z,102095.25
2024-01-26T11:41:46.302Z,102100.06
2024-01-26T11:44:21.024Z,102102.31
2024-01-26T11:46:48.780Z,102100.50
2024-01-26T11:49:15.575Z,102100.19
2024-01-26T11:51:42.347Z,102101.19
2024-01-26T11:54:09.372Z,102092.03
2024-01-26T11:56:35.951Z,102094.75
2024-01-26T11:59:02.955Z,102089.25
2024-01-26T12:01:29.462Z,102089.06
2024-01-26T12:03:56.078Z,102081.09
2024-01-26T12:06:23.168Z,102075.03
2024-01-26T12:08:49.919Z,102068.34
2024-01-26T12:11:18.464Z,102065.88
2024-01-26T12:13:45.398Z,102061.81
2024-01-26T12:16:12.017Z,102062.19
2024-01-26T12:18:39.703Z,102062.41
2024-01-26T12:21:06.311Z,102054.25
2024-01-26T12:23:35.081Z,102042.78
2024-01-26T12:26:01.539Z,102034.00
2024-01-26T12:28:28.585Z,102027.59
2024-01-26T12:30:55.376Z,102019.13
2024-01-26T12:33:24.127Z,102012.38
2024-01-26T12:35:53.306Z,102016.03
2024-01-26T12:38:20.041Z,102024.50
2024-01-26T12:40:48.168Z,102017.16
2024-01-26T12:43:14.777Z,102016.22
2024-01-26T12:45:41.725Z,102005.31
2024-01-26T12:48:09.457Z,101996.75
2024-01-26T12:50:36.462Z,101989.47
2024-01-26T12:53:03.374Z,101984.44
2024-01-26T12:55:29.950Z,101974.81
2024-01-26T12:57:56.673Z,101969.56
2024-01-26T13:00:23.498Z,101966.25
2024-01-26T13:02:50.105Z,101968.81
2024-01-26T13:05:17.562Z,101971.75
2024-01-26T13:07:44.197Z,101978.19
2024-01-26T13:10:10.684Z,101976.22
2024-01-26T13:12:37.425Z,101975.50
2024-01-26T13:15:05.232Z,101975.16
2024-01-26T13:17:31.774Z,101973.94
2024-01-26T13:20:05.086Z,101973.72
2024-01-26T13:22:38.680Z,101977.41
2024-01-26T13:25:05.595Z,101983.31
2024-01-26T13:27:32.102Z,101981.34
2024-01-26T13:29:58.706Z,101970.38
2024-01-26T13:32:25.235Z,101968.56
2024-01-26T13:34:51.894Z,101963.09
2024-01-26T13:37:18.506Z,101961.66
2024-01-26T13:39:45.000Z,101948.31
2024-01-26T13:42:11.631Z,101943.78
2024-01-26T13:44:38.158Z,101943.47
2024-01-26T13:47:05.042Z,101935.47
2024-01-26T13:49:31.683Z,101945.69
2024-01-26T13:51:58.280Z,101948.84
2024-01-26T13:54:25.083Z,101945.94
2024-01-26T13:56:55.847Z,101945.63
2024-01-26T13:59:22.370Z,101946.31
2024-01-26T14:01:49.235Z,101943.97
2024-01-26T14:04:15.906Z,101943.06
2024-01-26T14:06:42.641Z,101951.44
2024-01-26T14:09:09.340Z,101944.91
2024-01-26T14:11:37.292Z,101938.16
2024-01-26T14:14:06.014Z,101941.13
2024-01-26T14:16:32.715Z,101941.63
2024-01-26T14:18:59.320Z,101937.97
2024-01-26T14:21:25.972Z,101928.66
2024-01-26T14:23:52.532Z,101920.78
2024-01-26T14:26:19.072Z,101932.84
2024-01-26T14:28:47.820Z,101929.06
2024-01-26T14:31:14.283Z,101925.06
2024-01-26T14:33:41.231Z,101917.38
2024-01-26T14:36:08.841Z,101927.06
2024-01-26T14:38:35.405Z,101926.53
2024-01-26T14:41:01.990Z,101922.16
2024-01-26T14:43:28.469Z,101919.63
2024-01-26T14:45:54.942Z,101913.97
2024-01-26T14:48:21.570Z,101909.59
2024-01-26T14:50:48.213Z,101908.47
2024-01-26T14:53:14.686Z,101907.94
2024-01-26T14:55:41.249Z,101908.47
2024-01-26T14:58:07.867Z,101915.22
2024-01-26T15:00:36.165Z,101920.31
2024-01-26T15:03:02.896Z,101930.75
2024-01-26T15:05:29.455Z,101927.81
2024-01-26T15:07:56.033Z,101924.34
2024-01-26T15:10:23.100Z,101923.41
2024-01-26T15:12:50.071Z,101929.25
2024-01-26T15:15:19.539Z,101933.97
2024-01-26T15:17:49.130Z,101935.06
2024-01-26T15:20:16.458Z,101927.03
2024-01-26T15:22:45.558Z,101931.91
2024-01-26T15:25:14.198Z,101924.47
2024-01-26T15:27:41.519Z,101917.53
2024-01-26T15:30:13.893Z,101924.19
2024-01-26T15:32:41.572Z,101914.31
2024-01-26T15:35:12.197Z,101906.25
2024-01-26T15:37:39.306Z,101911.91
2024-01-26T15:40:07.377Z,101903.13
2024-01-26T15:42:34.031Z,101903.88
2024-01-26T15:45:02.741Z,101919.38
2024-01-26T15:47:29.553Z,101912.22
2024-01-26T15:49:56.303Z,101912.38
2024-01-26T15:52:29.542Z,101899.22
2024-01-26T15:54:59.965Z,101897.00
2024-01-26T15:57:26.535Z,101893.34
2024-01-26T15:59:53.141Z,101881.13
2024-01-26T16:02:19.651Z,101885.81
2024-01-26T16:04:46.242Z,101877.56
2024-01-26T16:07:12.957Z,101876.28
2024-01-26T16:09:40.777Z,101878.03
2024-01-26T16:12:07.391Z,101881.25
2024-01-26T16:14:33.934Z,101877.19
2024-01-26T16:17:00.469Z,101880.13
2024-01-26T16:19:27.440Z,101892.19
2024-01-26T16:21:54.734Z,101898.84
2024-01-26T16:24:21.480Z,101900.78
2024-01-26T16:26:48.074Z,101897.16
2024-01-26T16:29:14.709Z,101899.63
2024-01-26T16:31:42.036Z,101901.72
2024-01-26T16:34:08.621Z,101896.13
2024-01-26T16:36:35.230Z,101904.81
2024-01-26T16:39:03.584Z,101895.66
2024-01-26T16:41:31.189Z,101885.69
2024-01-26T16:43:57.692Z,101884.50
2024-01-26T16:46:25.494Z,101884.13
2024-01-26T16:48:52.073Z,101874.22
2024-01-26T16:51:18.911Z,101876.59
2024-01-26T16:53:45.524Z,101872.78
2024-01-26T16:56:13.786Z,101866.78
2024-01-26T16:58:40.280Z,101860.78
2024-01-26T17:01:13.734Z,101866.47
2024-01-26T17:03:40.742Z,101859.53
2024-01-26T17:06:07.341Z,101854.44
2024-01-26T17:08:34.125Z,101866.88
2024-01-26T17:11:00.771Z,101873.78
2024-01-26T17:13:29.594Z,101869.03
2024-01-26T17:15:57.455Z,101878.63
2024-01-26T17:18:24.116Z,101882.59
2024-01-26T17:20:50.705Z,101871.06
2024-01-26T17:23:17.357Z,101877.91
2024-01-26T17:25:43.903Z,101877.03
2024-01-26T17:28:10.407Z,101878.63
2024-01-26T17:30:36.984Z,101889.31
2024-01-26T17:33:03.702Z,101892.50
2024-01-26T17:35:32.047Z,101893.31
2024-01-26T17:37:59.013Z,101896.06
2024-01-26T17:40:25.664Z,101902.38
2024-01-26T17:42:53.292Z,101900.84
2024-01-26T17:45:21.133Z,101901.28
2024-01-26T17:47:49.048Z,101897.69
2024-01-26T17:50:15.636Z,101899.72
2024-01-26T17:52:42.115Z,101890.25
2024-01-26T17:55:08.895Z,101892.69
2024-01-26T17:57:35.448Z,101893.00
2024-01-26T18:00:02.463Z,101901.38
2024-01-26T18:02:29.220Z,101899.81
2024-01-26T18:04:55.702Z,101903.09
2024-01-26T18:07:22.243Z,101886.38
2024-01-26T18:09:49.000Z,101895.75
2024-01-26T18:12:15.586Z,101903.28
2024-01-26T18:14:42.146Z,101902.25
2024-01-26T18:17:08.709Z,101895.94
2024-01-26T18:19:35.590Z,101903.19
2024-01-26T18:22:02.198Z,101900.84
2024-01-26T18:24:28.793Z,101900.22
2024-01-26T18:26:55.378Z,101897.09
2024-01-26T18:29:21.887Z,101892.69
2024-01-26T18:31:48.327Z,101885.94
2024-01-26T18:34:15.071Z,101892.06
2024-01-26T18:36:41.649Z,101879.63
2024-01-26T18:39:08.158Z,101878.66
2024-01-26T18:41:34.685Z,101878.22
2024-01-26T18:44:01.922Z,101896.75
2024-01-26T18:46:28.489Z,101893.31
2024-01-26T18:48:56.176Z,101889.91
2024-01-26T18:51:24.013Z,101894.09
2024-01-26T18:53:50.652Z,101901.41
2024-01-26T18:56:18.291Z,101904.56
2024-01-26T18:58:45.935Z,101899.78
2024-01-26T19:01:15.140Z,101895.41
2024-01-26T19:03:43.397Z,101889.19
2024-01-26T19:06:10.547Z,101890.19
2024-01-26T19:08:40.342Z,101877.84
2024-01-26T19:11:06.916Z,101872.25
2024-01-26T19:13:33.535Z,101874.59
2024-01-26T19:16:02.144Z,101883.84
2024-01-26T19:18:29.297Z,101893.72
2024-01-26T19:20:56.110Z,101896.72
2024-01-26T19:23:22.681Z,101869.19
2024-01-26T19:25:51.014Z,101867.66
2024-01-26T19:28:18.057Z,101874.28
2024-01-26T19:30:44.602Z,101869.59
2024-01-26T19:33:11.498Z,101874.69
2024-01-26T19:35:38.199Z,101870.94
2024-01-26T19:38:04.827Z,101862.97
2024-01-26T19:40:31.617Z,101866.03
2024-01-26T19:42:58.208Z,101874.84
2024-01-26T19:45:25.564Z,101883.19
2024-01-26T19:47:52.408Z,101871.00
2024-01-26T19:50:19.111Z,101869.34
2024-01-26T19:52:45.752Z,101874.22
2024-01-26T19:55:12.713Z,101880.59
2024-01-26T19:57:41.969Z,101883.44
2024-01-26T20:00:10.191Z,101876.75
2024-01-26T20:02:37.522Z,101870.44
2024-01-26T20:05:05.424Z,101872.75
2024-01-26T20:07:31.989Z,101883.44
2024-01-26T20:09:59.172Z,101893.13
2024-01-26T20:12:25.923Z,101876.03
2024-01-26T20:14:52.570Z,101881.75
2024-01-26T20:17:21.661Z,101884.94
2024-01-26T20:19:48.495Z,101879.00
2024-01-26T20:22:15.066Z,101885.22
2024-01-26T20:24:42.141Z,101883.66
2024-01-26T20:27:09.344Z,101897.16
2024-01-26T20:29:37.666Z,101896.38
2024-01-26T20:32:04.797Z,101905.00
2024-01-26T20:34:31.835Z,101886.84
2024-01-26T20:37:00.744Z,101896.31
2024-01-26T20:39:27.389Z,101901.13
2024-01-26T20:41:54.762Z,101905.19
2024-01-26T20:44:21.967Z,101892.44
2024-01-26T20:46:48.538Z,101884.94
2024-01-26T20:49:15.554Z,101884.38
2024-01-26T20:51:42.397Z,101888.03
2024-01-26T20:54:08.924Z,101890.16
2024-01-26T20:56:35.691Z,101887.16
2024-01-26T20:59:04.892Z,101897.44
2024-01-26T21:01:34.717Z,101887.56
2024-01-26T21:04:01.384Z,101899.16
2024-01-26T21:06:28.191Z,101899.16
2024-01-26T21:08:54.887Z,101891.25
2024-01-26T21:11:22.540Z,101887.72
2024-01-26T21:13:49.147Z,101891.94
2024-01-26T21:16:15.665Z,101893.19
2024-01-26T21:18:42.324Z,101898.63
2024-01-26T21:21:09.094Z,101899.13
2024-01-26T21:23:35.774Z,101897.28
2024-01-26T21:26:04.758Z,101891.06
2024-01-26T21:28:31.349Z,101887.41
2024-01-26T21:30:57.834Z,101897.91
2024-01-26T21:33:24.469Z,101897.88
2024-01-26T21:35:51.199Z,101901.41
2024-01-26T21:38:17.831Z,101900.75
2024-01-26T21:40:44.375Z,101896.44
2024-01-26T21:43:11.318Z,101900.38
2024-01-26T21:45:37.954Z,101899.34
2024-01-26T21:48:08.055Z,101905.59
2024-01-26T21:50:35.033Z,101913.53
2024-01-26T21:53:01.582Z,101919.03
2024-01-26T21:55:28.149Z,101905.22
2024-01-26T21:57:54.651Z,101894.22
2024-01-26T22:00:21.248Z,101893.66
2024-01-26T22:02:49.112Z,101904.69
2024-01-26T22:05:15.761Z,101903.69
2024-01-26T22:07:42.478Z,101910.00
2024-01-26T22:10:09.338Z,101926.63
2024-01-26T22:12:36.001Z,101919.31
2024-01-26T22:15:04.450Z,101913.44
2024-01-26T22:17:32.392Z,101925.72
2024-01-26T22:19:59.451Z,101925.66
2024-01-26T22:22:27.828Z,101935.09
2024-01-26T22:24:54.455Z,101936.28
2024-01-26T22:27:21.484Z,101930.91
2024-01-26T22:29:48.162Z,101926.31
2024-01-26T22:32:14.762Z,101925.47
2024-01-26T22:34:41.356Z,101944.50
2024-01-26T22:37:07.982Z,101941.84
2024-01-26T22:39:34.611Z,101945.03
2024-01-26T22:42:01.707Z,101929.53
2024-01-26T22:44:28.515Z,101943.16
2024-01-26T22:46:55.182Z,101953.28
2024-01-26T22:49:22.414Z,101956.06
2024-01-26T22:51:49.161Z,101962.63
2024-01-26T22:54:15.726Z,101959.97
2024-01-26T22:56:42.412Z,101971.66
2024-01-26T22:59:08.911Z,101965.38
2024-01-26T23:01:35.434Z,101971.03
2024-01-26T23:04:02.341Z,101957.81
2024-01-26T23:06:29.090Z,101966.56
2024-01-26T23:08:55.662Z,101971.63
2024-01-26T23:11:23.958Z,101980.38
2024-01-26T23:13:51.087Z,101991.94
2024-01-26T23:16:21.714Z,101986.53
2024-01-26T23:18:48.376Z,101980.47
2024-01-26T23:21:15.142Z,101981.53
2024-01-26T23:23:41.690Z,101993.31
2024-01-26T23:26:08.810Z,101988.41
2024-01-26T23:28:36.839Z,101987.19
2024-01-26T23:31:03.338Z,101991.28
2024-01-26T23:33:30.091Z,101984.66
2024-01-26T23:35:56.813Z,101990.56
2024-01-26T23:38:23.634Z,101991.09
2024-01-26T23:40:50.116Z,101986.13
2024-01-26T23:43:16.743Z,101992.34
2024-01-26T23:45:43.332Z,101994.16
2024-01-26T23:48:11.587Z,101990.97
2024-01-26T23:50:40.522Z,101993.31
2024-01-26T23:53:07.336Z,101987.09
2024-01-26T23:55:33.805Z,101968.19
2024-01-26T23:58:00.323Z,101978.09
